createdAt,value
2024-05-09T00:00:45.794Z,51.77
2024-05-09T00:03:15.053Z,51.59
2024-05-09T00:05:44.719Z,51.50
2024-05-09T00:08:14.528Z,51.33
2024-05-09T00:10:48.579Z,51.62
2024-05-09T00:13:17.666Z,51.53
2024-05-09T00:15:46.657Z,51.67
2024-05-09T00:18:15.833Z,51.40
2024-05-09T00:20:44.959Z,51.26
2024-05-09T00:23:14.756Z,51.53
2024-05-09T00:25:45.028Z,51.63
2024-05-09T00:28:16.257Z,50.93
2024-05-09T00:30:45.427Z,51.49
2024-05-09T00:33:17.482Z,51.33
2024-05-09T00:35:46.673Z,51.14
2024-05-09T00:38:15.759Z,51.39
2024-05-09T00:40:44.926Z,51.48
2024-05-09T00:43:16.511Z,51.63
2024-05-09T00:45:45.674Z,51.70
2024-05-09T00:48:21.297Z,51.42
2024-05-09T00:50:53.504Z,51.43
2024-05-09T00:53:22.544Z,50.93
2024-05-09T00:55:51.737Z,51.34
2024-05-09T00:58:27.875Z,51.46
2024-05-09T01:01:00.390Z,51.56
2024-05-09T01:03:32.603Z,51.87
2024-05-09T01:06:01.870Z,51.33
2024-05-09T01:08:31.078Z,51.38
2024-05-09T01:11:00.247Z,51.58
2024-05-09T01:13:33.840Z,51.31
2024-05-09T01:16:03.059Z,51.45
2024-05-09T01:18:32.220Z,51.07
2024-05-09T01:21:07.508Z,51.50
2024-05-09T01:23:38.694Z,51.35
2024-05-09T01:26:13.343Z,51.10
2024-05-09T01:28:45.115Z,51.52
2024-05-09T01:31:15.501Z,51.31
2024-05-09T01:33:45.058Z,51.09
2024-05-09T01:36:14.228Z,51.23
2024-05-09T01:38:47.360Z,51.00
2024-05-09T01:41:16.456Z,50.93
2024-05-09T01:43:48.506Z,51.39
2024-05-09T01:46:20.784Z,51.32
2024-05-09T01:48:49.947Z,51.17
2024-05-09T01:51:19.057Z,51.33
2024-05-09T01:53:50.585Z,51.08
2024-05-09T01:56:19.561Z,50.95
2024-05-09T01:58:48.511Z,50.92
2024-05-09T02:01:20.523Z,51.59
2024-05-09T02:03:49.796Z,51.33
2024-05-09T02:06:19.021Z,51.27
2024-05-09T02:08:50.000Z,51.18
2024-05-09T02:11:19.013Z,51.14
2024-05-09T02:13:51.130Z,50.79
2024-05-09T02:16:20.085Z,51.10
2024-05-09T02:18:49.197Z,51.02
2024-05-09T02:21:18.191Z,50.89
2024-05-09T02:23:49.147Z,51.12
2024-05-09T02:26:18.210Z,51.42
2024-05-09T02:28:47.178Z,50.99
2024-05-09T02:31:14.129Z,51.50
2024-05-09T02:33:43.254Z,51.31
2024-05-09T02:36:12.520Z,51.29
2024-05-09T02:38:42.451Z,51.19
2024-05-09T02:41:13.490Z,51.50
2024-05-09T02:43:40.486Z,51.08
2024-05-09T02:46:12.304Z,51.53
2024-05-09T02:48:42.038Z,51.08
2024-05-09T02:51:11.162Z,51.57
2024-05-09T02:53:44.499Z,51.81
2024-05-09T02:56:15.516Z,51.16
2024-05-09T02:58:42.478Z,51.18
2024-05-09T03:01:14.211Z,51.39
2024-05-09T03:03:44.755Z,51.34
2024-05-09T03:06:13.751Z,51.18
2024-05-09T03:08:47.491Z,51.33
2024-05-09T03:11:28.343Z,51.15
2024-05-09T03:13:55.357Z,51.20
2024-05-09T03:16:24.389Z,51.07
2024-05-09T03:18:51.634Z,50.98
2024-05-09T03:21:20.690Z,51.42
2024-05-09T03:23:47.639Z,51.35
2024-05-09T03:26:18.993Z,51.57
2024-05-09T03:28:48.060Z,51.02
2024-05-09T03:31:20.563Z,51.07
2024-05-09T03:33:47.595Z,51.57
2024-05-09T03:36:16.688Z,51.52
2024-05-09T03:38:45.664Z,51.24
2024-05-09T03:41:17.472Z,51.41
2024-05-09T03:43:46.444Z,51.37
2024-05-09T03:46:17.479Z,51.21
2024-05-09T03:48:44.479Z,51.63
2024-05-09T03:51:13.648Z,51.43
2024-05-09T03:53:40.702Z,51.27
2024-05-09T03:56:10.063Z,51.40
2024-05-09T03:58:37.201Z,51.80
2024-05-09T04:01:06.642Z,51.27
2024-05-09T04:03:36.405Z,51.68
2024-05-09T04:06:05.827Z,51.72
2024-05-09T04:08:32.885Z,51.06
2024-05-09T04:11:02.052Z,50.96
2024-05-09T04:13:29.047Z,51.56
2024-05-09T04:15:57.976Z,51.11
2024-05-09T04:18:31.053Z,51.57
2024-05-09T04:21:08.690Z,51.36
2024-05-09T04:23:35.777Z,51.46
2024-05-09T04:26:05.533Z,51.50
2024-05-09T04:28:35.212Z,51.27
2024-05-09T04:31:04.166Z,51.57
2024-05-09T04:33:34.099Z,51.40
2024-05-09T04:36:05.377Z,51.49
2024-05-09T04:38:32.390Z,51.20
2024-05-09T04:41:04.476Z,50.86
2024-05-09T04:43:32.734Z,50.85
2024-05-09T04:46:01.723Z,50.11
2024-05-09T04:48:37.831Z,49.53
2024-05-09T04:51:09.445Z,48.77
2024-05-09T04:53:36.563Z,48.58
2024-05-09T04:56:06.278Z,48.05
2024-05-09T04:58:33.235Z,47.23
2024-05-09T05:01:05.706Z,47.22
2024-05-09T05:03:35.482Z,47.41
2024-05-09T05:06:04.695Z,47.40
2024-05-09T05:08:36.902Z,46.70
2024-05-09T05:11:06.382Z,46.53
2024-05-09T05:13:35.612Z,45.71
2024-05-09T05:16:09.154Z,45.51
2024-05-09T05:18:36.225Z,45.11
2024-05-09T05:21:05.502Z,44.64
2024-05-09T05:23:37.652Z,44.44
2024-05-09T05:26:19.687Z,44.00
2024-05-09T05:28:46.701Z,44.44
2024-05-09T05:31:17.108Z,44.25
2024-05-09T05:33:54.656Z,44.33
2024-05-09T05:36:23.623Z,43.74
2024-05-09T05:38:52.608Z,43.55
2024-05-09T05:41:21.602Z,43.31
2024-05-09T05:43:48.559Z,43.10
2024-05-09T05:46:17.508Z,44.20
2024-05-09T05:48:47.530Z,48.15
2024-05-09T05:51:16.603Z,44.64
2024-05-09T05:53:44.219Z,43.09
2024-05-09T05:56:15.292Z,44.72
2024-05-09T05:58:42.683Z,42.71
2024-05-09T06:01:14.775Z,42.10
2024-05-09T06:03:41.950Z,44.19
2024-05-09T06:06:15.854Z,50.33
2024-05-09T06:08:42.875Z,47.25
2024-05-09T06:11:12.088Z,54.96
2024-05-09T06:13:47.221Z,51.71
2024-05-09T06:16:16.276Z,52.18
2024-05-09T06:18:43.406Z,55.38
2024-05-09T06:21:12.468Z,49.11
2024-05-09T06:23:45.871Z,49.12
2024-05-09T06:26:14.913Z,48.68
2024-05-09T06:28:42.058Z,45.76
2024-05-09T06:31:13.579Z,42.89
2024-05-09T06:33:41.885Z,40.42
2024-05-09T06:36:11.429Z,42.33
2024-05-09T06:38:38.468Z,45.46
2024-05-09T06:41:10.373Z,45.33
2024-05-09T06:43:37.639Z,43.14
2024-05-09T06:46:06.899Z,44.79
2024-05-09T06:48:39.173Z,51.46
2024-05-09T06:51:17.641Z,49.13
2024-05-09T06:53:44.643Z,47.96
2024-05-09T06:56:13.674Z,48.01
2024-05-09T06:58:43.563Z,50.72
2024-05-09T07:01:15.578Z,48.56
2024-05-09T07:03:47.611Z,48.85
2024-05-09T07:06:16.676Z,49.11
2024-05-09T07:08:48.025Z,46.04
2024-05-09T07:11:17.662Z,45.13
2024-05-09T07:16:37.095Z,42.33
2024-05-09T07:21:35.614Z,45.58
2024-05-09T07:24:06.008Z,41.07
2024-05-09T07:26:37.749Z,44.24
2024-05-09T07:29:07.523Z,39.89
2024-05-09T07:31:36.477Z,40.91
2024-05-09T07:34:05.497Z,43.87
2024-05-09T07:36:40.551Z,43.36
2024-05-09T07:39:07.493Z,41.97
2024-05-09T07:41:46.090Z,38.65
2024-05-09T07:44:13.326Z,44.03
2024-05-09T07:47:48.473Z,47.11
2024-05-09T07:53:29.835Z,43.15
2024-05-09T07:55:03.297Z,43.89
2024-05-09T07:57:35.538Z,45.82
2024-05-09T08:00:17.192Z,44.88
2024-05-09T08:02:46.858Z,44.23
2024-05-09T08:05:16.398Z,43.08
2024-05-09T08:07:46.577Z,43.15
2024-05-09T08:10:18.709Z,45.65
2024-05-09T08:12:57.059Z,44.28
2024-05-09T08:15:24.263Z,42.22
2024-05-09T08:17:59.553Z,42.80
2024-05-09T08:20:35.209Z,43.47
2024-05-09T08:23:04.934Z,45.87
2024-05-09T08:25:35.160Z,42.69
2024-05-09T08:28:06.491Z,43.59
2024-05-09T08:30:38.121Z,46.96
2024-05-09T08:33:10.548Z,45.30
2024-05-09T08:35:40.029Z,43.06
2024-05-09T08:38:15.305Z,40.53
2024-05-09T08:40:45.944Z,41.20
2024-05-09T08:43:18.009Z,39.12
2024-05-09T08:48:21.220Z,38.32
2024-05-09T08:50:52.822Z,39.79
2024-05-09T08:53:22.481Z,42.01
2024-05-09T08:55:52.103Z,40.01
2024-05-09T08:58:21.384Z,40.66
2024-05-09T09:00:49.164Z,40.56
2024-05-09T09:03:20.505Z,40.53
2024-05-09T09:05:57.974Z,40.50
2024-05-09T09:08:28.300Z,41.95
2024-05-09T09:11:01.640Z,40.14
2024-05-09T09:13:33.657Z,43.43
2024-05-09T09:16:02.307Z,41.65
2024-05-09T09:18:34.468Z,39.78
2024-05-09T09:21:04.329Z,40.85
2024-05-09T09:23:33.283Z,39.93
2024-05-09T09:26:03.593Z,41.69
2024-05-09T09:28:32.595Z,45.11
2024-05-09T09:31:03.766Z,42.43
2024-05-09T09:33:44.266Z,42.64
2024-05-09T09:36:13.866Z,40.51
2024-05-09T09:38:47.763Z,39.47
2024-05-09T09:41:19.332Z,38.62
2024-05-09T09:43:49.327Z,39.79
2024-05-09T09:46:17.511Z,38.15
2024-05-09T09:48:47.909Z,38.76
2024-05-09T09:51:17.252Z,38.71
2024-05-09T09:53:50.617Z,37.24
2024-05-09T09:56:18.154Z,38.50
2024-05-09T09:58:48.313Z,39.91
2024-05-09T10:01:15.396Z,39.14
2024-05-09T10:03:47.694Z,37.53
2024-05-09T10:06:20.770Z,38.28
2024-05-09T10:08:51.192Z,37.77
2024-05-09T10:11:20.302Z,38.09
2024-05-09T10:13:49.432Z,36.52
2024-05-09T10:16:21.659Z,37.14
2024-05-09T10:18:51.119Z,41.26
2024-05-09T10:21:23.489Z,43.90
2024-05-09T10:24:00.420Z,43.21
2024-05-09T10:26:32.417Z,43.76
2024-05-09T10:29:02.727Z,43.42
2024-05-09T10:31:29.961Z,42.76
2024-05-09T10:33:59.277Z,42.48
2024-05-09T10:36:29.303Z,43.88
2024-05-09T10:38:58.299Z,43.22
2024-05-09T10:41:25.407Z,42.82
2024-05-09T10:43:59.650Z,41.26
2024-05-09T10:46:26.786Z,45.09
2024-05-09T10:48:55.956Z,43.42
2024-05-09T10:51:24.054Z,42.54
2024-05-09T10:53:56.410Z,44.31
2024-05-09T10:56:23.304Z,42.45
2024-05-09T10:58:56.241Z,42.21
2024-05-09T11:01:23.399Z,43.38
2024-05-09T11:03:52.785Z,40.33
2024-05-09T11:06:19.927Z,35.68
2024-05-09T11:08:49.406Z,41.22
2024-05-09T11:11:18.792Z,34.28
2024-05-09T11:13:47.759Z,36.36
2024-05-09T11:16:20.200Z,35.26
2024-05-09T11:18:57.494Z,35.15
2024-05-09T11:21:24.890Z,35.51
2024-05-09T11:23:58.439Z,39.54
2024-05-09T11:26:28.899Z,38.33
2024-05-09T11:28:57.867Z,38.98
2024-05-09T11:31:27.867Z,36.39
2024-05-09T11:33:56.996Z,37.13
2024-05-09T11:36:24.032Z,36.76
2024-05-09T11:38:58.994Z,37.59
2024-05-09T11:41:30.771Z,39.03
2024-05-09T11:43:57.725Z,36.28
2024-05-09T11:46:26.773Z,36.96
2024-05-09T11:48:56.892Z,39.41
2024-05-09T11:51:25.903Z,40.28
2024-05-09T11:54:01.913Z,43.77
2024-05-09T11:56:39.026Z,43.54
2024-05-09T11:59:05.998Z,41.42
2024-05-09T12:01:35.248Z,41.40
2024-05-09T12:04:02.544Z,38.86
2024-05-09T12:06:31.856Z,40.32
2024-05-09T12:08:58.830Z,39.79
2024-05-09T12:11:27.829Z,41.41
2024-05-09T12:13:56.791Z,39.88
2024-05-09T12:16:26.104Z,41.43
2024-05-09T12:18:53.262Z,38.79
2024-05-09T12:21:22.320Z,40.52
2024-05-09T12:23:52.252Z,39.97
2024-05-09T12:26:21.442Z,39.31
2024-05-09T12:28:48.373Z,37.06
2024-05-09T12:31:19.427Z,37.50
2024-05-09T12:33:46.487Z,36.64
2024-05-09T12:36:15.555Z,37.35
2024-05-09T12:38:45.664Z,36.40
2024-05-09T12:41:17.731Z,38.27
2024-05-09T12:43:49.101Z,38.47
2024-05-09T12:46:23.457Z,34.87
2024-05-09T12:48:51.296Z,34.96
2024-05-09T12:51:20.412Z,35.47
2024-05-09T12:53:47.425Z,37.72
2024-05-09T12:56:16.549Z,36.56
2024-05-09T12:58:43.511Z,36.27
2024-05-09T13:01:12.527Z,38.44
2024-05-09T13:03:41.929Z,38.17
2024-05-09T13:06:11.387Z,38.37
2024-05-09T13:08:38.834Z,39.20
2024-05-09T13:11:07.997Z,38.99
2024-05-09T13:13:40.439Z,41.09
2024-05-09T13:16:12.628Z,40.06
2024-05-09T13:21:10.563Z,38.23
2024-05-09T13:23:37.512Z,40.16
2024-05-09T13:26:06.883Z,39.99
2024-05-09T13:28:34.012Z,38.50
2024-05-09T13:31:03.898Z,39.76
2024-05-09T13:33:37.183Z,38.53
2024-05-09T13:36:10.638Z,37.11
2024-05-09T13:38:40.688Z,37.38
2024-05-09T13:41:11.070Z,35.96
2024-05-09T13:43:46.735Z,34.56
2024-05-09T13:46:15.803Z,35.47
2024-05-09T13:48:45.560Z,38.31
2024-05-09T13:51:16.687Z,39.15
2024-05-09T13:53:46.524Z,39.47
2024-05-09T13:56:21.259Z,37.90
2024-05-09T13:58:49.966Z,40.34
2024-05-09T14:01:21.906Z,39.96
2024-05-09T14:03:49.275Z,40.61
2024-05-09T14:06:20.595Z,40.32
2024-05-09T14:08:48.033Z,36.43
2024-05-09T14:11:17.126Z,36.42
2024-05-09T14:13:46.887Z,37.04
2024-05-09T14:16:21.887Z,35.24
2024-05-09T14:18:49.845Z,35.71
2024-05-09T14:21:20.875Z,38.86
2024-05-09T14:23:47.810Z,34.85
2024-05-09T14:26:19.946Z,37.87
2024-05-09T14:28:49.956Z,36.76
2024-05-09T14:31:22.257Z,35.79
2024-05-09T14:33:49.329Z,33.79
2024-05-09T14:36:23.467Z,37.36
2024-05-09T14:38:50.372Z,38.64
2024-05-09T14:41:22.043Z,39.85
2024-05-09T14:43:48.941Z,37.73
2024-05-09T14:46:20.915Z,36.86
2024-05-09T14:48:48.031Z,36.49
2024-05-09T14:51:22.133Z,36.44
2024-05-09T14:53:49.019Z,40.43
2024-05-09T14:56:18.049Z,39.03
2024-05-09T14:58:45.002Z,37.92
2024-05-09T15:01:14.029Z,40.10
2024-05-09T15:03:44.405Z,38.80
2024-05-09T15:06:13.508Z,41.28
2024-05-09T15:08:42.632Z,40.31
2024-05-09T15:11:11.686Z,37.45
2024-05-09T15:13:44.549Z,39.31
2024-05-09T15:16:13.509Z,38.92
2024-05-09T15:18:43.777Z,39.82
2024-05-09T15:21:12.996Z,38.41
2024-05-09T15:23:44.501Z,38.41
2024-05-09T15:26:16.687Z,38.72
2024-05-09T15:28:46.394Z,39.44
2024-05-09T15:31:18.455Z,38.99
2024-05-09T15:33:45.465Z,40.75
2024-05-09T15:36:16.852Z,38.80
2024-05-09T15:38:46.040Z,41.26
2024-05-09T15:41:20.760Z,42.66
2024-05-09T15:43:47.654Z,40.76
2024-05-09T15:46:16.832Z,39.83
2024-05-09T15:48:48.243Z,42.20
2024-05-09T15:51:17.320Z,39.86
2024-05-09T15:53:49.210Z,41.97
2024-05-09T15:56:18.487Z,39.17
2024-05-09T15:58:45.461Z,40.34
2024-05-09T16:01:14.556Z,41.77
2024-05-09T16:03:41.620Z,41.29
2024-05-09T16:06:10.728Z,40.84
2024-05-09T16:08:37.835Z,39.32
2024-05-09T16:11:12.481Z,43.29
2024-05-09T16:13:42.424Z,42.40
2024-05-09T16:16:11.678Z,40.71
2024-05-09T16:18:41.775Z,41.66
2024-05-09T16:21:10.976Z,39.59
2024-05-09T16:23:39.862Z,41.82
2024-05-09T16:26:10.927Z,40.02
2024-05-09T16:28:37.974Z,39.93
2024-05-09T16:31:09.837Z,43.62
2024-05-09T16:33:36.954Z,41.04
2024-05-09T16:36:09.501Z,42.38
2024-05-09T16:38:44.794Z,43.99
2024-05-09T16:41:19.217Z,41.78
2024-05-09T16:43:46.129Z,42.55
2024-05-09T16:46:15.760Z,41.14
2024-05-09T16:48:46.730Z,43.34
2024-05-09T16:51:15.834Z,43.52
2024-05-09T16:53:45.937Z,42.39
2024-05-09T16:56:17.160Z,42.74
2024-05-09T16:58:44.206Z,42.42
2024-05-09T17:01:14.465Z,41.09
2024-05-09T17:03:49.592Z,44.64
2024-05-09T17:06:19.007Z,43.84
2024-05-09T17:08:46.075Z,40.99
2024-05-09T17:11:21.064Z,41.72
2024-05-09T17:13:50.074Z,40.89
2024-05-09T17:16:20.417Z,44.41
2024-05-09T17:18:50.067Z,43.91
2024-05-09T17:21:17.249Z,42.59
2024-05-09T17:23:50.754Z,43.04
2024-05-09T17:26:19.987Z,42.63
2024-05-09T17:28:49.125Z,43.28
2024-05-09T17:31:16.068Z,42.59
2024-05-09T17:33:45.178Z,44.25
2024-05-09T17:36:18.223Z,43.32
2024-05-09T17:38:47.335Z,43.68
2024-05-09T17:41:18.442Z,43.62
2024-05-09T17:43:49.437Z,45.55
2024-05-09T17:46:16.477Z,42.56
2024-05-09T17:48:48.467Z,42.91
2024-05-09T17:51:15.478Z,42.80
2024-05-09T17:53:47.372Z,45.50
2024-05-09T17:56:19.820Z,42.74
2024-05-09T17:58:48.929Z,44.04
2024-05-09T18:01:20.804Z,42.42
2024-05-09T18:03:48.388Z,44.14
2024-05-09T18:06:17.820Z,44.01
2024-05-09T18:08:44.747Z,45.45
2024-05-09T18:11:13.947Z,45.09
2024-05-09T18:13:40.952Z,45.80
2024-05-09T18:16:12.328Z,45.59
2024-05-09T18:18:39.731Z,44.73
2024-05-09T18:21:11.881Z,45.71
2024-05-09T18:23:38.832Z,45.06
2024-05-09T18:26:08.155Z,46.40
2024-05-09T18:28:35.562Z,44.86
2024-05-09T18:31:12.607Z,46.54
2024-05-09T18:33:39.691Z,45.97
2024-05-09T18:36:12.093Z,47.02
2024-05-09T18:38:39.601Z,48.32
2024-05-09T18:41:08.587Z,48.24
2024-05-09T18:43:45.246Z,47.79
2024-05-09T18:46:19.608Z,47.83
2024-05-09T18:48:46.779Z,48.70
2024-05-09T18:51:16.477Z,48.38
2024-05-09T18:53:46.337Z,47.39
2024-05-09T18:56:18.441Z,49.16
2024-05-09T18:58:48.688Z,47.97
2024-05-09T19:01:20.211Z,48.66
2024-05-09T19:03:50.435Z,47.78
2024-05-09T19:06:23.837Z,46.15
2024-05-09T19:08:54.443Z,47.27
2024-05-09T19:11:23.404Z,48.94
2024-05-09T19:13:50.356Z,50.50
2024-05-09T19:16:21.645Z,48.30
2024-05-09T19:18:50.868Z,46.22
2024-05-09T19:21:22.680Z,45.56
2024-05-09T19:23:52.336Z,46.84
2024-05-09T19:26:21.624Z,46.72
2024-05-09T19:28:48.573Z,46.55
2024-05-09T19:31:28.971Z,47.81
2024-05-09T19:33:59.090Z,48.13
2024-05-09T19:36:28.359Z,48.96
2024-05-09T19:38:55.333Z,51.18
2024-05-09T19:41:24.538Z,49.63
2024-05-09T19:43:51.467Z,47.45
2024-05-09T19:46:20.662Z,50.16
2024-05-09T19:48:49.938Z,52.83
2024-05-09T19:51:18.999Z,49.91
2024-05-09T19:53:45.954Z,50.38
2024-05-09T19:56:14.978Z,49.04
2024-05-09T19:58:41.923Z,47.05
2024-05-09T20:01:11.004Z,45.75
2024-05-09T20:03:38.277Z,45.27
2024-05-09T20:06:12.408Z,47.59
2024-05-09T20:08:42.084Z,51.40
2024-05-09T20:11:13.382Z,53.65
2024-05-09T20:13:40.289Z,54.05
2024-05-09T20:16:10.590Z,55.10
2024-05-09T20:18:37.628Z,57.35
2024-05-09T20:21:11.812Z,54.59
2024-05-09T20:23:39.014Z,55.31
2024-05-09T20:26:11.133Z,53.76
2024-05-09T20:28:38.318Z,51.30
2024-05-09T20:31:07.849Z,55.90
2024-05-09T20:33:38.035Z,56.11
2024-05-09T20:36:08.315Z,55.86
2024-05-09T20:38:37.566Z,58.52
2024-05-09T20:41:09.931Z,54.86
2024-05-09T20:43:36.814Z,54.58
2024-05-09T20:46:08.928Z,56.63
2024-05-09T20:48:39.099Z,52.83
2024-05-09T20:51:14.912Z,57.28
2024-05-09T20:53:43.892Z,58.88
2024-05-09T20:56:15.989Z,61.04
2024-05-09T20:58:43.172Z,57.77
2024-05-09T21:01:12.175Z,55.10
2024-05-09T21:03:42.261Z,59.67
2024-05-09T21:06:11.259Z,57.47
2024-05-09T21:08:43.375Z,56.51
2024-05-09T21:11:14.932Z,54.35
2024-05-09T21:13:44.930Z,54.04
2024-05-09T21:16:17.212Z,54.40
2024-05-09T21:18:44.254Z,55.97
2024-05-09T21:21:13.273Z,54.58
2024-05-09T21:23:40.179Z,52.83
2024-05-09T21:26:14.763Z,51.01
2024-05-09T21:28:44.499Z,50.90
2024-05-09T21:31:13.565Z,52.05
2024-05-09T21:33:40.562Z,51.77
2024-05-09T21:36:11.484Z,51.86
2024-05-09T21:38:40.198Z,49.05
2024-05-09T21:41:11.617Z,48.49
2024-05-09T21:43:38.638Z,50.47
2024-05-09T21:46:10.694Z,50.52
2024-05-09T21:48:38.139Z,52.83
2024-05-09T21:51:17.581Z,50.21
2024-05-09T21:53:44.467Z,49.98
2024-05-09T21:56:15.508Z,50.48
2024-05-09T21:58:45.455Z,49.14
2024-05-09T22:01:14.522Z,48.63
2024-05-09T22:03:44.883Z,50.88
2024-05-09T22:06:13.974Z,52.08
2024-05-09T22:08:43.737Z,50.78
2024-05-09T22:11:14.782Z,49.95
2024-05-09T22:13:47.886Z,51.14
2024-05-09T22:16:16.865Z,49.34
2024-05-09T22:18:46.710Z,48.81
2024-05-09T22:21:18.820Z,48.09
2024-05-09T22:23:45.702Z,47.31
2024-05-09T22:26:16.695Z,47.75
2024-05-09T22:28:46.339Z,47.47
2024-05-09T22:31:15.321Z,47.28
2024-05-09T22:33:48.629Z,47.62
2024-05-09T22:36:17.738Z,47.53
2024-05-09T22:38:47.732Z,47.65
2024-05-09T22:41:21.774Z,47.83
2024-05-09T22:43:48.683Z,47.79
2024-05-09T22:46:17.701Z,47.65
2024-05-09T22:48:47.595Z,47.73
2024-05-09T22:51:19.515Z,47.79
2024-05-09T22:53:48.410Z,47.64
2024-05-09T22:56:29.819Z,47.93
2024-05-09T22:58:56.987Z,47.66
2024-05-09T23:01:27.006Z,47.77
2024-05-09T23:03:54.248Z,47.68
2024-05-09T23:06:23.283Z,47.83
2024-05-09T23:08:50.186Z,47.91
2024-05-09T23:11:19.102Z,48.01
2024-05-09T23:13:48.120Z,48.06
2024-05-09T23:16:17.153Z,48.21
2024-05-09T23:18:44.211Z,48.07
2024-05-09T23:21:13.212Z,48.41
2024-05-09T23:23:40.128Z,48.31
2024-05-09T23:26:09.037Z,48.14
2024-05-09T23:28:36.200Z,48.00
2024-05-09T23:31:07.437Z,47.96
2024-05-09T23:33:46.844Z,47.98
2024-05-09T23:36:16.022Z,48.30
2024-05-09T23:38:43.336Z,48.54
2024-05-09T23:41:19.945Z,48.04
2024-05-09T23:43:47.059Z,48.18
2024-05-09T23:46:20.370Z,48.06
2024-05-09T23:48:50.974Z,47.85
2024-05-09T23:51:20.247Z,48.12
2024-05-09T23:53:47.194Z,48.27
2024-05-09T23:56:21.012Z,48.47
2024-05-09T23:58:47.945Z,48.32
